Дата Время Давление Темп. Влажн. Скор.ветра Напр.ветра Макс.ветер Осадки/час Осадки
13.11.18 03:00 765.3 -7.1 74.8 2.1 176 3.8 0 0
13.11.18 02:00 765.5 -6.7 73 2.4 174 5.3 0 0
13.11.18 01:00 765.5 -6.3 71.6 3.1 178 6 0 0
13.11.18 00:00 765.5 -6 71.1 3.2 182 6.8 0 0.2
12.11.18 23:00 765.6 -5.7 71.4 3 186 6.5 0 0.2
12.11.18 22:00 765.7 -5.5 72.8 3.2 178 6.8 0 0.2
12.11.18 21:00 765.6 -5 72.3 2.6 177 6.5 0 0.2
12.11.18 20:00 765.8 -4.4 69.1 2.5 182 5.3 0 0.2
12.11.18 19:00 765.8 -3.7 64.3 2.8 175 5.8 0 0.2
12.11.18 18:00 765.8 -3.1 61 2.1 180 4.2 0 0.2
12.11.18 17:00 765.9 -2.5 57.2 1.8 170 4.7 0 0.2
12.11.18 16:00 766.1 -1.1 52.7 2.4 180 6.1 0 0.2
12.11.18 15:00 766.1 0.5 47.2 2.4 182 6.8 0 0.2
12.11.18 14:00 766.3 -0.3 46.8 3.1 182 6.3 0 0.2
12.11.18 13:00 766.6 -0.8 49.4 2.9 181 6.8 0 0.2
12.11.18 12:00 766.7 -2.2 61.9 2.7 185 5.9 0 0.2
12.11.18 11:00 766.6 -4.2 71.5 3.4 178 7.6 0 0.2
11.11.18 13:00 764.4 0.3 67.3 2.2 183 5.9 0 0.2
11.11.18 12:00 763.9 -0.7 72.8 1.7 162 7.1 0 0.2
11.11.18 11:00 763.7 -1.1 76.5 2.5 174 6.9 0 0.2
11.11.18 10:00 763.6 -1.6 81.9 1.9 134 5.7 0 0.2
11.11.18 09:00 762.9 -1.6 84.9 2.4 132 5.6 0 0.2
11.11.18 08:00 762.3 -1.3 86.5 1.6 148 5.6 0 0.2
11.11.18 07:00 761.7 -1.3 88.6 2.3 157 7.4 0 0.2